createdAt,value
2023-02-22T00:01:51.113Z,93.08
2023-02-22T00:04:21.412Z,93.22
2023-02-22T00:06:49.760Z,93.26
2023-02-22T00:09:21.417Z,93.12
2023-02-22T00:11:49.002Z,92.98
2023-02-22T00:14:20.289Z,93.00
2023-02-22T00:16:47.062Z,93.03
2023-02-22T00:19:13.685Z,93.29
2023-02-22T00:21:40.267Z,93.00
2023-02-22T00:24:23.333Z,93.10
2023-02-22T00:26:57.985Z,93.11
2023-02-22T00:29:25.599Z,93.07
2023-02-22T00:31:57.067Z,92.98
2023-02-22T00:34:24.280Z,93.01
2023-02-22T00:36:51.203Z,92.99
2023-02-22T00:39:20.590Z,93.09
2023-02-22T00:41:47.385Z,93.06
2023-02-22T00:44:14.668Z,93.47
2023-02-22T00:46:41.271Z,93.02
2023-02-22T00:49:10.076Z,93.35
2023-02-22T00:51:36.815Z,93.49
2023-02-22T00:54:03.436Z,93.14
2023-02-22T00:56:30.070Z,93.26
2023-02-22T00:58:56.593Z,93.17
2023-02-22T01:01:24.295Z,92.54
2023-02-22T01:03:51.344Z,93.36
2023-02-22T01:06:20.443Z,93.39
2023-02-22T01:08:50.056Z,92.94
2023-02-22T01:11:17.536Z,93.00
2023-02-22T01:13:47.332Z,92.92
2023-02-22T01:16:14.452Z,93.07
2023-02-22T01:18:44.071Z,93.03
2023-02-22T01:21:10.685Z,93.06
2023-02-22T01:23:39.693Z,93.33
2023-02-22T01:26:06.328Z,93.00
2023-02-22T01:28:36.180Z,93.08
2023-02-22T01:31:03.264Z,93.30
2023-02-22T01:33:30.243Z,93.05
2023-02-22T01:35:56.858Z,93.15
2023-02-22T01:38:23.414Z,93.16
2023-02-22T01:40:51.514Z,93.33
2023-02-22T01:43:29.667Z,93.20
2023-02-22T01:46:25.725Z,93.22
2023-02-22T01:48:57.376Z,93.23
2023-02-22T01:51:25.684Z,92.95
2023-02-22T01:54:27.760Z,93.39
2023-02-22T01:57:07.246Z,93.06
2023-02-22T01:59:43.107Z,93.12
2023-02-22T02:02:10.143Z,93.50
2023-02-22T02:04:37.190Z,93.06
2023-02-22T02:07:10.193Z,93.25
2023-02-22T02:09:43.957Z,93.12
2023-02-22T02:12:15.224Z,93.26
2023-02-22T02:14:43.899Z,93.62
2023-02-22T02:17:15.710Z,93.52
2023-02-22T02:19:54.305Z,93.25
2023-02-22T02:22:42.881Z,93.20
2023-02-22T02:25:40.723Z,93.71
2023-02-22T02:28:16.319Z,93.52
2023-02-22T02:31:22.512Z,93.51
2023-02-22T02:34:05.095Z,93.61
2023-02-22T02:36:40.315Z,93.15
2023-02-22T02:39:31.030Z,93.04
2023-02-22T02:42:00.273Z,93.31
2023-02-22T02:44:37.981Z,93.34
2023-02-22T02:47:21.906Z,93.31
2023-02-22T02:49:55.572Z,93.38
2023-02-22T02:52:27.226Z,93.76
2023-02-22T02:54:55.867Z,93.79
2023-02-22T02:57:22.546Z,93.68
2023-02-22T02:59:51.612Z,93.56
2023-02-22T03:02:41.194Z,93.76
2023-02-22T03:05:19.594Z,93.99
2023-02-22T03:08:10.058Z,93.80
2023-02-22T03:10:50.429Z,93.81
2023-02-22T03:13:40.289Z,94.03
2023-02-22T03:16:12.861Z,94.15
2023-02-22T03:18:45.317Z,93.90
2023-02-22T03:21:39.614Z,93.99
2023-02-22T03:24:15.268Z,93.96
2023-02-22T03:26:47.630Z,93.84
2023-02-22T03:29:17.938Z,94.14
2023-02-22T03:32:01.567Z,94.13
2023-02-22T03:34:56.754Z,94.46
2023-02-22T03:37:34.161Z,94.09
2023-02-22T03:40:14.002Z,94.26
2023-02-22T03:42:51.744Z,94.52
2023-02-22T03:45:21.395Z,94.40
2023-02-22T03:47:53.139Z,94.59
2023-02-22T03:50:35.560Z,94.74
2023-02-22T03:53:02.948Z,94.62
2023-02-22T03:55:31.522Z,94.68
2023-02-22T03:58:00.285Z,94.74
2023-02-22T04:00:30.662Z,95.04
2023-02-22T04:03:00.026Z,94.66
2023-02-22T04:05:26.855Z,95.10
2023-02-22T04:07:54.854Z,95.49
2023-02-22T04:10:22.461Z,94.99
2023-02-22T04:12:50.786Z,94.88
2023-02-22T04:15:23.987Z,95.19
2023-02-22T04:17:52.310Z,94.87
2023-02-22T04:20:25.711Z,95.25
2023-02-22T04:22:53.566Z,95.04
2023-02-22T04:25:21.235Z,95.28
2023-02-22T04:27:47.855Z,95.20
2023-02-22T04:30:19.968Z,95.44
2023-02-22T04:32:46.739Z,95.51
2023-02-22T04:35:15.959Z,95.67
2023-02-22T04:37:44.699Z,95.58
2023-02-22T04:40:11.603Z,95.52
2023-02-22T04:42:40.705Z,95.48
2023-02-22T04:45:08.981Z,95.62
2023-02-22T04:47:39.699Z,95.58
2023-02-22T04:50:11.556Z,95.78
2023-02-22T04:52:43.364Z,95.85
2023-02-22T04:55:10.132Z,95.85
2023-02-22T04:57:36.741Z,95.71
2023-02-22T05:00:05.798Z,96.10
2023-02-22T05:02:32.608Z,95.88
2023-02-22T05:04:59.163Z,96.20
2023-02-22T05:07:25.806Z,96.00
2023-02-22T05:09:52.506Z,96.26
2023-02-22T05:12:19.164Z,96.39
2023-02-22T05:14:45.734Z,96.25
2023-02-22T05:17:14.937Z,96.16
2023-02-22T05:19:47.286Z,96.17
2023-02-22T05:22:16.119Z,96.50
2023-02-22T05:24:43.899Z,96.68
2023-02-22T05:27:10.501Z,96.59
2023-02-22T05:29:38.705Z,96.84
2023-02-22T05:32:08.209Z,96.74
2023-02-22T05:34:34.940Z,96.58
2023-02-22T05:37:02.036Z,96.88
2023-02-22T05:39:28.606Z,96.72
2023-02-22T05:41:55.193Z,96.94
2023-02-22T05:44:21.761Z,97.00
2023-02-22T05:46:48.439Z,96.30
2023-02-22T05:49:15.784Z,96.80
2023-02-22T05:51:42.392Z,96.77
2023-02-22T05:54:09.028Z,96.89
2023-02-22T05:56:36.578Z,96.74
2023-02-22T05:59:03.229Z,96.79
2023-02-22T06:01:32.230Z,96.66
2023-02-22T06:03:58.834Z,96.85
2023-02-22T06:06:25.460Z,96.66
2023-02-22T06:08:52.108Z,96.77
2023-02-22T06:11:21.223Z,96.65
2023-02-22T06:13:52.827Z,96.69
2023-02-22T06:16:22.616Z,96.44
2023-02-22T06:18:51.585Z,96.76
2023-02-22T06:21:18.433Z,96.51
2023-02-22T06:23:47.487Z,96.85
2023-02-22T06:26:17.419Z,96.73
2023-02-22T06:28:44.049Z,96.69
2023-02-22T06:31:12.996Z,96.77
2023-02-22T06:33:44.103Z,96.85
2023-02-22T06:36:11.509Z,96.77
2023-02-22T06:38:38.277Z,96.94
2023-02-22T06:41:05.012Z,96.81
2023-02-22T06:43:36.070Z,96.81
2023-02-22T06:46:05.044Z,96.49
2023-02-22T06:48:34.623Z,96.81
2023-02-22T06:51:01.662Z,96.54
2023-02-22T06:53:28.203Z,96.97
2023-02-22T06:55:57.097Z,96.71
2023-02-22T06:58:23.712Z,96.96
2023-02-22T07:00:50.325Z,97.11
2023-02-22T07:03:17.580Z,96.63
2023-02-22T07:05:46.364Z,97.10
2023-02-22T07:08:15.323Z,96.94
2023-02-22T07:10:41.980Z,97.00
2023-02-22T07:13:09.349Z,97.46
2023-02-22T07:15:36.486Z,97.09
2023-02-22T07:18:05.768Z,97.03
2023-02-22T07:20:32.764Z,96.75
2023-02-22T07:23:00.051Z,96.90
2023-02-22T07:25:27.444Z,96.91
2023-02-22T07:27:54.115Z,96.82
2023-02-22T07:30:28.049Z,96.82
2023-02-22T07:32:55.491Z,96.93
2023-02-22T07:35:29.569Z,96.81
2023-02-22T07:37:56.494Z,96.77
2023-02-22T07:40:24.419Z,96.63
2023-02-22T07:42:56.852Z,96.96
2023-02-22T07:45:26.161Z,96.57
2023-02-22T07:47:53.086Z,96.72
2023-02-22T07:50:20.763Z,96.56
2023-02-22T07:52:52.149Z,96.77
2023-02-22T07:55:26.020Z,96.62
2023-02-22T07:57:54.601Z,96.53
2023-02-22T08:00:31.856Z,96.48
2023-02-22T08:03:05.667Z,96.36
2023-02-22T08:05:36.368Z,96.46
2023-02-22T08:08:06.827Z,96.11
2023-02-22T08:10:37.637Z,96.08
2023-02-22T08:13:05.457Z,96.02
2023-02-22T08:15:35.647Z,96.01
2023-02-22T08:18:04.246Z,95.82
2023-02-22T08:20:31.272Z,95.77
2023-02-22T08:23:00.740Z,95.20
2023-02-22T08:25:29.526Z,95.42
2023-02-22T08:28:01.681Z,95.45
2023-02-22T08:30:32.745Z,95.23
2023-02-22T08:33:05.344Z,94.82
2023-02-22T08:35:33.522Z,95.22
2023-02-22T08:38:05.698Z,94.69
2023-02-22T08:40:35.168Z,94.42
2023-02-22T08:43:01.917Z,94.01
2023-02-22T08:45:29.140Z,93.46
2023-02-22T08:47:58.817Z,93.29
2023-02-22T08:50:30.835Z,93.12
2023-02-22T08:53:02.679Z,93.00
2023-02-22T08:55:33.549Z,92.36
2023-02-22T08:58:03.063Z,92.04
2023-02-22T09:00:34.072Z,91.76
2023-02-22T09:03:02.567Z,91.76
2023-02-22T09:05:31.331Z,91.27
2023-02-22T09:07:58.399Z,91.06
2023-02-22T09:10:27.613Z,90.41
2023-02-22T09:12:55.608Z,90.36
2023-02-22T09:15:23.164Z,89.79
2023-02-22T09:17:50.167Z,89.46
2023-02-22T09:20:22.312Z,89.88
2023-02-22T09:22:49.661Z,89.74
2023-02-22T09:25:17.888Z,88.90
2023-02-22T09:27:48.733Z,89.49
2023-02-22T09:30:32.338Z,88.96
2023-02-22T09:33:03.176Z,88.65
2023-02-22T09:35:30.178Z,87.78
2023-02-22T09:38:00.305Z,87.92
2023-02-22T09:40:30.330Z,87.24
2023-02-22T09:43:02.976Z,86.03
2023-02-22T09:45:48.232Z,85.43
2023-02-22T09:48:21.996Z,84.88
2023-02-22T09:50:51.450Z,84.33
2023-02-22T09:53:18.262Z,84.24
2023-02-22T09:55:51.568Z,83.75
2023-02-22T09:58:25.847Z,83.82
2023-02-22T10:01:06.950Z,83.38
2023-02-22T10:03:49.247Z,83.50
2023-02-22T10:06:21.252Z,82.88
2023-02-22T10:08:50.115Z,83.00
2023-02-22T10:11:31.267Z,82.59
2023-02-22T10:14:22.608Z,82.82
2023-02-22T10:16:59.473Z,82.85
2023-02-22T10:19:44.436Z,82.61
2023-02-22T10:22:43.421Z,82.14
2023-02-22T10:25:12.991Z,81.26
2023-02-22T10:27:48.062Z,80.91
2023-02-22T10:30:35.197Z,80.69
2023-02-22T10:33:44.811Z,80.97
2023-02-22T10:36:23.746Z,80.49
2023-02-22T10:39:00.655Z,80.39
2023-02-22T10:41:33.090Z,80.39
2023-02-22T10:44:01.470Z,80.58
2023-02-22T10:46:29.553Z,80.74
2023-02-22T10:49:04.346Z,80.81
2023-02-22T10:51:33.225Z,80.84
2023-02-22T10:54:14.715Z,81.27
2023-02-22T10:56:53.022Z,81.36
2023-02-22T10:59:34.680Z,81.46
2023-02-22T11:02:08.529Z,81.53
2023-02-22T11:04:54.578Z,81.67
2023-02-22T11:07:36.693Z,81.58
2023-02-22T11:10:09.576Z,81.79
2023-02-22T11:12:42.431Z,81.74
2023-02-22T11:15:18.861Z,81.67
2023-02-22T11:17:50.857Z,81.71
2023-02-22T11:20:26.822Z,81.53
2023-02-22T11:22:54.711Z,81.31
2023-02-22T11:25:25.450Z,80.90
2023-02-22T11:27:55.955Z,80.51
2023-02-22T11:30:25.284Z,80.23
2023-02-22T11:32:54.712Z,79.88
2023-02-22T11:35:49.815Z,79.92
2023-02-22T11:38:16.332Z,79.80
2023-02-22T11:40:44.427Z,79.85
2023-02-22T11:43:20.438Z,80.19
2023-02-22T11:46:06.094Z,80.64
2023-02-22T11:48:36.844Z,80.56
2023-02-22T11:51:31.004Z,80.66
2023-02-22T11:54:32.478Z,80.70
2023-02-22T11:57:02.048Z,80.29
2023-02-22T12:00:15.731Z,80.54
2023-02-22T12:03:23.949Z,80.50
2023-02-22T12:05:59.809Z,80.10
2023-02-22T12:08:32.981Z,79.97
2023-02-22T12:11:40.662Z,80.02
2023-02-22T12:14:42.101Z,80.00
2023-02-22T12:17:19.197Z,80.06
2023-02-22T12:19:58.829Z,80.20
2023-02-22T12:22:27.238Z,80.46
2023-02-22T12:25:09.786Z,80.68
2023-02-22T12:27:49.352Z,81.02
2023-02-22T12:30:28.918Z,81.12
2023-02-22T12:33:00.100Z,81.19
2023-02-22T12:35:27.647Z,81.50
2023-02-22T12:37:56.878Z,81.51
2023-02-22T12:40:47.427Z,81.53
2023-02-22T12:43:22.472Z,81.44
2023-02-22T12:45:55.067Z,81.60
2023-02-22T12:48:49.297Z,81.51
2023-02-22T12:51:41.277Z,81.61
2023-02-22T12:54:16.858Z,81.57
2023-02-22T12:56:49.079Z,81.47
2023-02-22T12:59:22.642Z,81.56
2023-02-22T13:01:58.558Z,81.62
2023-02-22T13:04:31.812Z,81.59
2023-02-22T13:07:23.154Z,81.79
2023-02-22T13:10:23.451Z,81.74
2023-02-22T13:12:57.696Z,81.81
2023-02-22T13:16:01.333Z,81.99
2023-02-22T13:18:33.763Z,81.57
2023-02-22T13:21:13.283Z,81.78
2023-02-22T13:24:25.137Z,81.88
2023-02-22T13:26:59.382Z,81.68
2023-02-22T13:29:34.757Z,81.74
2023-02-22T13:32:13.424Z,81.44
2023-02-22T13:34:46.083Z,81.41
2023-02-22T13:37:39.334Z,81.13
2023-02-22T13:40:21.133Z,80.90
2023-02-22T13:43:06.579Z,80.79
2023-02-22T13:46:01.073Z,80.79
2023-02-22T13:49:05.198Z,80.85
2023-02-22T13:51:57.121Z,80.60
2023-02-22T13:54:28.835Z,80.68
2023-02-22T13:56:57.471Z,80.51
2023-02-22T13:59:37.336Z,80.84
2023-02-22T14:02:07.971Z,80.95
2023-02-22T14:04:38.396Z,81.07
2023-02-22T14:07:29.890Z,81.36
2023-02-22T14:09:59.190Z,81.38
2023-02-22T14:12:33.564Z,81.25
2023-02-22T14:15:28.729Z,81.45
2023-02-22T14:18:03.862Z,81.53
2023-02-22T14:20:36.701Z,81.40
2023-02-22T14:23:28.297Z,81.65
2023-02-22T14:25:55.980Z,81.23
2023-02-22T14:28:59.254Z,82.05
2023-02-22T14:31:36.898Z,81.82
2023-02-22T14:34:20.213Z,81.85
2023-02-22T14:36:57.799Z,81.96
2023-02-22T14:40:19.088Z,81.97
2023-02-22T14:42:50.939Z,81.78
2023-02-22T14:45:27.380Z,82.34
2023-02-22T14:48:11.667Z,82.57
2023-02-22T14:50:41.529Z,82.50
2023-02-22T14:53:15.700Z,82.50
2023-02-22T14:55:50.926Z,82.33
2023-02-22T14:58:27.887Z,82.42
2023-02-22T15:00:56.838Z,82.30
2023-02-22T15:03:37.505Z,82.42
2023-02-22T15:06:14.923Z,82.33
2023-02-22T15:08:49.412Z,82.21
2023-02-22T15:11:25.245Z,82.41
2023-02-22T15:13:55.136Z,82.61
2023-02-22T15:16:29.265Z,82.66
2023-02-22T15:18:59.787Z,82.80
2023-02-22T15:21:28.810Z,82.66
2023-02-22T15:23:59.414Z,82.62
2023-02-22T15:26:37.289Z,83.00
2023-02-22T15:29:15.194Z,82.94
2023-02-22T15:31:48.320Z,82.86
2023-02-22T15:34:15.432Z,82.99
2023-02-22T15:36:43.476Z,83.16
2023-02-22T15:39:29.559Z,83.25
2023-02-22T15:42:08.102Z,83.62
2023-02-22T15:44:45.764Z,83.45
2023-02-22T15:47:23.804Z,83.82
2023-02-22T15:50:21.108Z,84.03
2023-02-22T15:53:00.295Z,83.97
2023-02-22T15:55:36.297Z,83.98
2023-02-22T15:58:19.754Z,84.30
2023-02-22T16:01:11.219Z,84.56
2023-02-22T16:03:45.768Z,84.40
2023-02-22T16:06:29.651Z,84.75
2023-02-22T16:09:00.070Z,84.53
2023-02-22T16:11:40.350Z,84.97
2023-02-22T16:14:26.791Z,84.79
2023-02-22T16:17:24.805Z,85.09
2023-02-22T16:19:54.276Z,84.96
2023-02-22T16:22:28.326Z,85.09
2023-02-22T16:25:16.309Z,85.41
2023-02-22T16:27:47.532Z,85.77
2023-02-22T16:30:32.426Z,85.65
2023-02-22T16:33:00.728Z,86.03
2023-02-22T16:35:32.643Z,85.92
2023-02-22T16:38:17.094Z,85.94
2023-02-22T16:40:54.890Z,85.98
2023-02-22T16:43:29.862Z,86.50
2023-02-22T16:45:58.727Z,85.96
2023-02-22T16:48:30.346Z,86.41
2023-02-22T16:51:01.035Z,86.52
2023-02-22T16:53:31.163Z,86.93
2023-02-22T16:56:02.613Z,86.37
2023-02-22T16:58:33.857Z,86.69
2023-02-22T17:01:03.238Z,86.89
2023-02-22T17:03:29.900Z,86.94
2023-02-22T17:05:56.648Z,86.89
2023-02-22T17:08:24.109Z,87.08
2023-02-22T17:10:51.928Z,87.03
2023-02-22T17:13:29.311Z,86.88
2023-02-22T17:15:57.046Z,87.07
2023-02-22T17:18:28.508Z,87.22
2023-02-22T17:20:55.765Z,87.20
2023-02-22T17:23:27.556Z,87.08
2023-02-22T17:26:00.578Z,86.99
2023-02-22T17:28:27.583Z,87.33
2023-02-22T17:30:56.082Z,87.17
2023-02-22T17:33:30.430Z,87.45
2023-02-22T17:35:58.667Z,87.23
2023-02-22T17:38:30.024Z,87.38
2023-02-22T17:41:01.502Z,87.47
2023-02-22T17:43:28.760Z,87.37
2023-02-22T17:45:56.336Z,87.29
2023-02-22T17:48:24.294Z,87.73
2023-02-22T17:50:56.091Z,87.62
2023-02-22T17:53:25.579Z,87.63
2023-02-22T17:55:52.659Z,87.30
2023-02-22T17:58:19.287Z,87.38
2023-02-22T18:00:48.937Z,87.44
2023-02-22T18:03:25.305Z,87.60
2023-02-22T18:05:56.242Z,87.41
2023-02-22T18:08:24.445Z,87.58
2023-02-22T18:10:56.292Z,87.67
2023-02-22T18:13:25.386Z,87.58
2023-02-22T18:15:52.433Z,87.96
2023-02-22T18:18:19.870Z,87.96
2023-02-22T18:20:51.528Z,88.00
2023-02-22T18:23:20.763Z,87.96
2023-02-22T18:26:03.838Z,87.83
2023-02-22T18:28:38.372Z,87.98
2023-02-22T18:31:14.700Z,87.84
2023-02-22T18:33:43.414Z,88.17
2023-02-22T18:36:14.252Z,87.92
2023-02-22T18:38:43.182Z,87.68
2023-02-22T18:41:12.924Z,87.71
2023-02-22T18:43:40.223Z,88.07
2023-02-22T18:46:12.347Z,88.08
2023-02-22T18:48:39.864Z,88.23
2023-02-22T18:51:10.539Z,88.20
2023-02-22T18:53:38.662Z,87.90
2023-02-22T18:56:11.502Z,88.11
2023-02-22T18:58:38.944Z,88.34
2023-02-22T19:01:06.967Z,88.56
2023-02-22T19:03:38.246Z,88.66
2023-02-22T19:06:10.573Z,88.75
2023-02-22T19:08:42.523Z,88.69
2023-02-22T19:11:17.926Z,88.84
2023-02-22T19:13:49.047Z,88.53
2023-02-22T19:16:20.249Z,88.59
2023-02-22T19:18:48.986Z,88.97
2023-02-22T19:21:16.349Z,89.02
2023-02-22T19:23:46.050Z,88.90
2023-02-22T19:26:31.268Z,88.79
2023-02-22T19:29:00.956Z,88.78
2023-02-22T19:31:31.680Z,88.83
2023-02-22T19:34:08.689Z,89.04
2023-02-22T19:36:38.620Z,89.17
2023-02-22T19:39:05.271Z,89.12
2023-02-22T19:41:31.843Z,89.24
2023-02-22T19:44:01.502Z,89.58
2023-02-22T19:46:31.515Z,89.48
2023-02-22T19:49:03.472Z,89.61
2023-02-22T19:51:31.846Z,89.63
2023-02-22T19:54:19.637Z,89.68
2023-02-22T19:56:50.954Z,89.50
2023-02-22T19:59:23.243Z,89.85
2023-02-22T20:01:53.737Z,89.91
2023-02-22T20:04:23.307Z,90.08
2023-02-22T20:06:54.620Z,89.69
2023-02-22T20:09:30.054Z,89.87
2023-02-22T20:11:57.060Z,89.97
2023-02-22T20:14:28.554Z,89.86
2023-02-22T20:16:56.201Z,90.06
2023-02-22T20:19:23.005Z,90.24
2023-02-22T20:21:52.382Z,89.99
2023-02-22T20:24:19.282Z,90.00
2023-02-22T20:26:47.181Z,90.09
2023-02-22T20:29:17.039Z,90.31
2023-02-22T20:31:44.566Z,90.63
2023-02-22T20:34:11.693Z,90.35
2023-02-22T20:36:40.265Z,90.64
2023-02-22T20:39:15.042Z,90.43
2023-02-22T20:41:43.870Z,90.21
2023-02-22T20:44:18.501Z,90.70
2023-02-22T20:46:46.568Z,90.96
2023-02-22T20:49:17.167Z,91.13
2023-02-22T20:51:45.638Z,91.15
2023-02-22T20:54:12.963Z,91.05
2023-02-22T20:56:44.669Z,91.28
2023-02-22T20:59:17.451Z,90.72
2023-02-22T21:01:44.144Z,91.01
2023-02-22T21:04:13.716Z,91.13
2023-02-22T21:06:40.932Z,90.83
2023-02-22T21:09:13.770Z,91.03
2023-02-22T21:11:40.513Z,91.16
2023-02-22T21:14:10.295Z,91.23
2023-02-22T21:16:37.509Z,91.17
2023-02-22T21:19:06.546Z,91.44
2023-02-22T21:21:36.116Z,91.53
2023-02-22T21:24:02.795Z,91.32
2023-02-22T21:26:34.358Z,91.16
2023-02-22T21:29:06.068Z,91.29
2023-02-22T21:31:34.159Z,91.33
2023-02-22T21:34:01.912Z,91.66
2023-02-22T21:36:29.040Z,92.04
2023-02-22T21:39:08.409Z,91.63
2023-02-22T21:41:39.178Z,91.83
2023-02-22T21:44:07.368Z,92.00
2023-02-22T21:46:33.910Z,92.02
2023-02-22T21:49:00.492Z,91.74
2023-02-22T21:51:31.797Z,92.20
2023-02-22T21:54:03.346Z,92.21
2023-02-22T21:56:32.464Z,92.02
2023-02-22T21:59:23.834Z,91.58
2023-02-22T22:01:55.724Z,91.58
2023-02-22T22:04:31.479Z,91.51
2023-02-22T22:07:00.687Z,91.92
2023-02-22T22:09:32.701Z,91.51
2023-02-22T22:12:03.080Z,91.77
2023-02-22T22:14:29.654Z,91.93
2023-02-22T22:16:59.721Z,91.84
2023-02-22T22:19:29.336Z,91.34
2023-02-22T22:21:57.488Z,91.97
2023-02-22T22:24:24.367Z,91.63
2023-02-22T22:26:54.922Z,91.47
2023-02-22T22:29:28.986Z,91.85
2023-02-22T22:31:58.214Z,91.57
2023-02-22T22:34:24.779Z,91.65
2023-02-22T22:36:51.414Z,91.98
2023-02-22T22:39:20.989Z,91.42
2023-02-22T22:41:48.265Z,91.50
2023-02-22T22:44:16.382Z,91.09
2023-02-22T22:46:43.901Z,90.89
2023-02-22T22:49:13.701Z,90.90
2023-02-22T22:51:47.475Z,91.21
2023-02-22T22:54:16.837Z,91.26
2023-02-22T22:56:46.502Z,91.02
2023-02-22T22:59:16.222Z,91.01
2023-02-22T23:01:44.759Z,91.43
2023-02-22T23:04:21.621Z,91.32
2023-02-22T23:06:50.769Z,91.51
2023-02-22T23:09:21.721Z,91.33
2023-02-22T23:12:16.766Z,91.49
2023-02-22T23:14:44.948Z,91.73
2023-02-22T23:17:26.906Z,91.83
2023-02-22T23:19:53.557Z,91.36
2023-02-22T23:22:21.290Z,91.43
2023-02-22T23:24:48.014Z,91.27
2023-02-22T23:27:14.959Z,91.75
2023-02-22T23:29:46.721Z,91.62
2023-02-22T23:32:14.325Z,91.86
2023-02-22T23:34:41.681Z,91.58
2023-02-22T23:37:11.116Z,91.46
2023-02-22T23:39:37.869Z,91.67
2023-02-22T23:42:09.649Z,91.61
2023-02-22T23:44:36.447Z,92.11
2023-02-22T23:47:04.095Z,91.85
2023-02-22T23:49:38.334Z,92.19
2023-02-22T23:52:09.435Z,91.87
2023-02-22T23:54:40.334Z,92.11
2023-02-22T23:57:08.882Z,91.88
2023-02-22T23:59:36.136Z,92.13
